createdAt,value
2023-02-02T04:47:15.316Z,7.10
2023-02-02T04:49:42.199Z,7.20
2023-02-02T04:52:10.608Z,7.30
2023-02-02T04:54:37.526Z,7.20
2023-02-02T04:57:04.462Z,7.10
2023-02-02T04:59:31.401Z,7.00
2023-02-02T05:02:01.558Z,6.90
2023-02-02T05:04:28.708Z,7.00
2023-02-02T05:06:55.640Z,7.00
2023-02-02T05:09:22.640Z,6.90
2023-02-02T05:11:49.509Z,6.70
2023-02-02T05:14:18.359Z,6.60
2023-02-02T05:16:45.481Z,6.40
2023-02-02T05:19:12.616Z,6.30
2023-02-02T05:21:39.523Z,6.40
2023-02-02T05:24:06.575Z,6.50
2023-02-02T05:26:33.543Z,6.60
2023-02-02T05:29:00.532Z,6.60
2023-02-02T05:31:27.599Z,6.80
2023-02-02T05:33:54.563Z,6.80
2023-02-02T05:36:21.553Z,6.80
2023-02-02T05:38:48.465Z,6.70
2023-02-02T05:41:15.346Z,6.80
2023-02-02T05:43:42.225Z,6.90
2023-02-02T05:46:09.227Z,6.90
2023-02-02T05:48:36.166Z,6.80
2023-02-02T05:51:03.096Z,6.80
2023-02-02T05:53:30.533Z,6.80
2023-02-02T05:55:58.862Z,6.70
2023-02-02T05:58:25.879Z,6.80
2023-02-02T06:00:54.954Z,6.90
2023-02-02T06:03:23.246Z,6.90
2023-02-02T06:05:50.190Z,6.90
2023-02-02T06:08:17.061Z,6.90
2023-02-02T06:10:44.119Z,7.00
2023-02-02T06:13:11.314Z,6.90
2023-02-02T06:15:38.391Z,6.90
2023-02-02T06:18:08.388Z,7.00
2023-02-02T06:20:35.619Z,7.10
2023-02-02T06:23:02.516Z,7.10
2023-02-02T06:25:29.395Z,7.10
2023-02-02T06:27:59.696Z,7.10
2023-02-02T06:30:27.396Z,7.30
2023-02-02T06:32:54.372Z,7.20
2023-02-02T06:35:21.365Z,7.30
2023-02-02T06:37:49.038Z,7.30
2023-02-02T06:40:16.247Z,7.30
2023-02-02T06:42:43.108Z,7.30
2023-02-02T06:45:10.401Z,7.30
2023-02-02T06:47:37.329Z,7.30
2023-02-02T06:50:04.619Z,7.20
2023-02-02T06:52:31.559Z,7.20
2023-02-02T06:54:58.433Z,7.20
2023-02-02T06:57:25.453Z,7.40
2023-02-02T06:59:52.425Z,7.40
2023-02-02T07:02:19.584Z,7.40
2023-02-02T07:04:46.508Z,7.30
2023-02-02T07:07:13.451Z,7.40
2023-02-02T07:09:40.399Z,7.50
2023-02-02T07:12:07.277Z,7.50
2023-02-02T07:14:34.165Z,7.70
2023-02-02T07:17:01.110Z,7.60
2023-02-02T07:19:28.057Z,7.60
2023-02-02T07:21:55.074Z,7.50
2023-02-02T07:24:22.023Z,7.50
2023-02-02T07:26:49.017Z,7.50
2023-02-02T07:29:15.943Z,7.50
2023-02-02T07:31:42.939Z,7.50
2023-02-02T07:34:09.951Z,7.40
2023-02-02T07:36:36.894Z,7.40
2023-02-02T07:39:04.903Z,7.40
2023-02-02T07:41:33.543Z,7.50
2023-02-02T07:44:00.567Z,7.40
2023-02-02T07:46:27.523Z,7.30
2023-02-02T07:48:57.580Z,7.40
2023-02-02T07:51:25.233Z,7.50
2023-02-02T07:53:53.156Z,7.50
2023-02-02T07:56:24.451Z,7.40
2023-02-02T07:58:52.000Z,7.40
2023-02-02T08:01:20.428Z,7.40
2023-02-02T08:03:47.469Z,7.40
2023-02-02T08:06:15.886Z,7.40
2023-02-02T08:08:42.867Z,7.40
2023-02-02T08:11:10.623Z,7.30
2023-02-02T08:13:37.961Z,7.30
2023-02-02T08:16:05.385Z,7.30
2023-02-02T08:18:33.497Z,7.30
2023-02-02T08:21:01.108Z,7.20
2023-02-02T08:23:28.404Z,7.20
2023-02-02T08:26:04.877Z,7.10
2023-02-02T08:28:31.802Z,7.30
2023-02-02T08:31:03.878Z,7.40
2023-02-02T08:33:30.767Z,7.40
2023-02-02T08:35:57.690Z,7.20
2023-02-02T08:38:24.698Z,7.10
2023-02-02T08:40:52.463Z,7.20
2023-02-02T08:43:19.375Z,7.20
2023-02-02T08:46:03.095Z,7.40
2023-02-02T08:48:33.943Z,7.50
2023-02-02T08:51:01.496Z,7.50
2023-02-02T08:53:28.948Z,7.60
2023-02-02T08:56:03.936Z,7.70
2023-02-02T08:58:31.618Z,7.50
2023-02-02T09:01:28.253Z,7.60
2023-02-02T09:03:55.911Z,7.60
2023-02-02T09:06:24.866Z,7.50
2023-02-02T09:08:51.873Z,7.60
2023-02-02T09:11:19.818Z,7.50
2023-02-02T09:13:48.653Z,7.60
2023-02-02T09:16:16.645Z,7.60
2023-02-02T09:18:44.177Z,7.50
2023-02-02T09:21:12.766Z,7.40
2023-02-02T09:23:40.414Z,7.30
2023-02-02T09:26:10.500Z,7.30
2023-02-02T09:28:39.333Z,7.30
2023-02-02T09:31:06.859Z,7.30
2023-02-02T09:33:33.926Z,7.30
2023-02-02T09:36:05.140Z,7.40
2023-02-02T09:38:32.084Z,7.60
2023-02-02T09:40:59.491Z,7.60
2023-02-02T09:43:29.272Z,7.70
2023-02-02T09:46:13.282Z,7.60
2023-02-02T09:48:40.223Z,7.60
2023-02-02T09:51:12.086Z,7.60
2023-02-02T09:54:05.181Z,7.70
2023-02-02T09:56:38.763Z,7.70
2023-02-02T09:59:19.190Z,7.80
2023-02-02T10:01:48.106Z,7.80
2023-02-02T10:04:18.905Z,7.80
2023-02-02T10:06:48.645Z,7.80
2023-02-02T10:09:34.815Z,7.80
2023-02-02T10:12:20.284Z,7.90
2023-02-02T10:14:59.255Z,7.70
2023-02-02T10:17:26.319Z,7.60
2023-02-02T10:19:56.980Z,7.60
2023-02-02T10:22:27.208Z,7.60
2023-02-02T10:24:54.699Z,7.60
2023-02-02T10:27:27.689Z,7.70
2023-02-02T10:30:00.985Z,7.70
2023-02-02T10:32:32.309Z,7.70
2023-02-02T10:35:13.461Z,7.70
2023-02-02T10:37:59.500Z,7.70
2023-02-02T10:40:26.741Z,7.80
2023-02-02T10:43:31.328Z,7.80
2023-02-02T10:45:59.580Z,7.60
2023-02-02T10:48:32.553Z,7.80
2023-02-02T10:51:00.482Z,7.80
2023-02-02T10:53:31.975Z,8.00
2023-02-02T10:56:08.617Z,8.10
2023-02-02T10:58:39.055Z,8.20
2023-02-02T11:01:11.240Z,8.30
2023-02-02T11:03:38.854Z,8.30
2023-02-02T11:06:25.939Z,8.40
2023-02-02T11:08:56.857Z,8.40
2023-02-02T11:11:23.770Z,8.50
2023-02-02T11:13:58.041Z,8.50
2023-02-02T11:16:32.632Z,8.60
2023-02-02T11:19:21.449Z,8.50
2023-02-02T11:21:56.509Z,8.30
2023-02-02T11:24:38.744Z,8.00
2023-02-02T11:27:12.251Z,7.90
2023-02-02T11:29:39.145Z,8.00
2023-02-02T11:32:17.930Z,8.00
2023-02-02T11:34:44.797Z,8.00
2023-02-02T11:37:13.147Z,7.80
2023-02-02T11:39:40.880Z,7.80
2023-02-02T11:42:12.387Z,7.80
2023-02-02T11:44:39.944Z,8.00
2023-02-02T11:47:06.935Z,8.00
2023-02-02T11:49:38.778Z,7.90
2023-02-02T11:52:07.496Z,7.90
2023-02-02T11:54:35.579Z,8.20
2023-02-02T11:57:03.925Z,8.30
2023-02-02T11:59:39.853Z,8.20
2023-02-02T12:02:12.546Z,8.10
2023-02-02T12:04:40.321Z,8.10
2023-02-02T12:07:24.093Z,8.10
2023-02-02T12:09:51.400Z,8.20
2023-02-02T12:12:30.242Z,8.10
2023-02-02T12:14:59.886Z,7.80
2023-02-02T12:17:26.740Z,7.80
2023-02-02T12:20:14.612Z,7.80
2023-02-02T12:23:00.112Z,7.80
2023-02-02T12:25:27.328Z,7.60
2023-02-02T12:28:01.152Z,7.70
2023-02-02T12:30:43.147Z,7.70
2023-02-02T12:33:12.821Z,7.70
2023-02-02T12:35:58.471Z,7.80
2023-02-02T12:38:42.708Z,8.00
2023-02-02T12:41:09.917Z,8.10
2023-02-02T12:43:36.775Z,8.00
2023-02-02T12:46:06.396Z,8.00
2023-02-02T12:48:42.010Z,8.10
2023-02-02T12:51:26.917Z,8.20
2023-02-02T12:54:34.402Z,8.20
2023-02-02T12:56:44.859Z,8.40
2023-02-02T12:59:22.627Z,8.60
2023-02-02T13:02:08.432Z,8.60
2023-02-02T13:04:46.537Z,8.60
2023-02-02T13:07:25.491Z,8.60
2023-02-02T13:10:00.762Z,8.40
2023-02-02T13:12:28.700Z,8.20
2023-02-02T13:15:01.044Z,8.10
2023-02-02T13:17:31.108Z,8.10
2023-02-02T13:19:59.729Z,7.90
2023-02-02T13:22:29.001Z,7.90
2023-02-02T13:24:59.441Z,7.90
2023-02-02T13:27:27.401Z,7.90
2023-02-02T13:29:57.295Z,7.90
2023-02-02T13:32:30.201Z,7.90
2023-02-02T13:35:00.927Z,8.00
2023-02-02T13:37:32.055Z,8.20
2023-02-02T13:40:05.784Z,8.20
2023-02-02T13:42:42.085Z,8.10
2023-02-02T13:45:38.320Z,8.20
2023-02-02T13:48:28.013Z,8.30
2023-02-02T13:51:13.530Z,8.30
2023-02-02T13:53:52.716Z,8.50
2023-02-02T13:56:25.571Z,8.50
2023-02-02T13:58:55.332Z,8.30
2023-02-02T14:01:23.259Z,8.30
2023-02-02T14:03:55.179Z,8.30
2023-02-02T14:06:26.181Z,8.30
2023-02-02T14:08:57.493Z,8.20
2023-02-02T14:11:24.392Z,8.30
2023-02-02T14:14:12.394Z,8.30
2023-02-02T14:16:39.255Z,8.30
2023-02-02T14:19:08.290Z,8.30
2023-02-02T14:21:35.160Z,8.30
2023-02-02T14:24:04.877Z,8.30
2023-02-02T14:26:45.576Z,8.30
2023-02-02T14:29:35.848Z,8.20
2023-02-02T14:32:06.751Z,8.00
2023-02-02T14:34:35.311Z,8.00
2023-02-02T14:37:20.585Z,7.90
2023-02-02T14:39:47.456Z,8.00
2023-02-02T14:42:35.790Z,8.00
2023-02-02T14:45:11.510Z,8.00
2023-02-02T14:47:52.659Z,8.00
2023-02-02T14:50:24.637Z,7.90
2023-02-02T14:52:59.952Z,7.90
2023-02-02T14:55:27.709Z,7.90
2023-02-02T14:58:02.191Z,7.70
2023-02-02T15:00:31.401Z,7.70
2023-02-02T15:03:16.985Z,7.80
2023-02-02T15:05:45.968Z,8.00
2023-02-02T15:08:25.933Z,8.00
2023-02-02T15:10:57.345Z,8.00
2023-02-02T15:13:26.045Z,8.10
2023-02-02T15:16:01.362Z,8.10
2023-02-02T15:18:31.155Z,8.10
2023-02-02T15:20:59.858Z,8.00
2023-02-02T15:23:41.500Z,7.90
2023-02-02T15:26:20.559Z,7.90
2023-02-02T15:28:56.200Z,7.80
2023-02-02T15:31:41.873Z,7.90
2023-02-02T15:34:20.596Z,7.90
2023-02-02T15:36:51.451Z,7.90
2023-02-02T15:39:25.203Z,7.90
2023-02-02T15:42:12.575Z,7.80
2023-02-02T15:44:39.542Z,7.70
2023-02-02T15:47:08.951Z,7.70
2023-02-02T15:49:36.405Z,7.80
2023-02-02T15:52:10.419Z,7.90
2023-02-02T15:54:40.006Z,7.90
2023-02-02T15:57:25.589Z,7.80
2023-02-02T15:59:52.573Z,7.90
2023-02-02T16:02:39.831Z,8.00
2023-02-02T16:05:25.796Z,7.90
2023-02-02T16:08:05.055Z,8.10
2023-02-02T16:10:33.092Z,8.10
2023-02-02T16:13:00.066Z,7.90
2023-02-02T16:15:28.950Z,7.80
2023-02-02T16:18:07.762Z,7.90
2023-02-02T16:20:35.570Z,8.00
2023-02-02T16:23:04.822Z,8.00
2023-02-02T16:25:33.710Z,8.00
2023-02-02T16:28:01.043Z,8.10
2023-02-02T16:30:29.407Z,8.20
2023-02-02T16:32:56.417Z,8.10
2023-02-02T16:35:37.268Z,8.10
2023-02-02T16:38:14.634Z,8.10
2023-02-02T16:40:41.733Z,8.00
2023-02-02T16:43:19.307Z,8.00
2023-02-02T16:45:47.336Z,8.10
2023-02-02T16:48:26.709Z,8.10
2023-02-02T16:51:12.206Z,8.30
2023-02-02T16:53:39.283Z,8.40
2023-02-02T16:56:07.257Z,8.50
2023-02-02T16:58:39.103Z,8.60
2023-02-02T17:01:15.647Z,8.60
2023-02-02T17:03:49.217Z,8.50
2023-02-02T17:06:16.295Z,8.50
2023-02-02T17:08:43.184Z,8.40
2023-02-02T17:11:12.582Z,8.40
2023-02-02T17:13:40.606Z,8.50
2023-02-02T17:16:10.952Z,8.60
2023-02-02T17:18:38.014Z,8.60
2023-02-02T17:21:07.610Z,8.70
2023-02-02T17:23:39.328Z,8.70
2023-02-02T17:26:07.226Z,8.80
2023-02-02T17:28:34.947Z,8.80
2023-02-02T17:31:02.912Z,8.80
2023-02-02T17:33:33.983Z,8.70
2023-02-02T17:36:01.416Z,8.70
2023-02-02T17:38:28.764Z,8.70
2023-02-02T17:40:56.090Z,8.80
2023-02-02T17:43:23.051Z,8.70
2023-02-02T17:45:50.358Z,8.80
2023-02-02T17:48:17.441Z,8.80
2023-02-02T17:50:44.738Z,8.90
2023-02-02T17:53:12.392Z,8.90
2023-02-02T17:55:41.839Z,8.90
2023-02-02T17:58:10.278Z,8.80
2023-02-02T18:00:38.415Z,8.80
2023-02-02T18:03:19.593Z,8.70
2023-02-02T18:05:46.536Z,8.60
2023-02-02T18:08:13.957Z,8.50
2023-02-02T18:10:41.270Z,8.50
2023-02-02T18:13:10.710Z,8.50
2023-02-02T18:15:38.307Z,8.50
2023-02-02T18:18:05.303Z,8.40
2023-02-02T18:20:32.214Z,8.40
2023-02-02T18:22:59.160Z,8.40
2023-02-02T18:25:26.450Z,8.40
2023-02-02T18:27:56.418Z,8.20
2023-02-02T18:30:24.719Z,8.20
2023-02-02T18:32:52.143Z,8.30
2023-02-02T18:35:19.045Z,8.40
2023-02-02T18:37:45.932Z,8.50
2023-02-02T18:40:12.959Z,8.50
2023-02-02T18:42:40.301Z,8.60
2023-02-02T18:45:07.405Z,8.50
2023-02-02T18:47:34.341Z,8.60
2023-02-02T18:50:01.332Z,8.70
2023-02-02T18:52:31.849Z,8.60
2023-02-02T18:54:58.816Z,8.70
2023-02-02T18:57:26.018Z,8.70
2023-02-02T18:59:53.045Z,8.70
2023-02-02T19:02:20.079Z,8.70
2023-02-02T19:05:05.666Z,8.80
2023-02-02T19:07:51.202Z,8.90
2023-02-02T19:10:18.881Z,8.80
2023-02-02T19:12:52.699Z,8.90
2023-02-02T19:15:19.752Z,8.90
2023-02-02T19:17:48.693Z,8.80
2023-02-02T19:20:24.336Z,8.80
2023-02-02T19:22:55.036Z,8.90
2023-02-02T19:25:21.993Z,9.00
2023-02-02T19:27:48.964Z,9.00
2023-02-02T19:30:19.129Z,9.10
2023-02-02T19:32:46.116Z,9.00
2023-02-02T19:35:20.741Z,9.00
2023-02-02T19:37:48.627Z,9.10
2023-02-02T19:40:22.880Z,9.10
2023-02-02T19:42:51.882Z,9.20
2023-02-02T19:45:29.182Z,9.20
2023-02-02T19:47:57.111Z,9.00
2023-02-02T19:50:26.080Z,9.10
2023-02-02T19:52:53.960Z,9.00
2023-02-02T19:55:28.333Z,9.20
2023-02-02T19:58:00.571Z,9.20
2023-02-02T20:00:29.145Z,9.20
2023-02-02T20:02:57.123Z,9.20
2023-02-02T20:05:25.726Z,9.30
2023-02-02T20:07:57.025Z,9.30
2023-02-02T20:10:26.563Z,9.30
2023-02-02T20:12:54.284Z,9.40
2023-02-02T20:15:24.244Z,9.40
2023-02-02T20:17:52.431Z,9.40
2023-02-02T20:20:23.905Z,9.40
2023-02-02T20:22:50.958Z,9.40
2023-02-02T20:25:18.684Z,9.30
2023-02-02T20:27:45.633Z,9.30
2023-02-02T20:30:27.535Z,9.20
2023-02-02T20:32:55.844Z,9.20
2023-02-02T20:35:22.729Z,9.30
2023-02-02T20:37:49.828Z,9.20
2023-02-02T20:40:19.527Z,9.40
2023-02-02T20:42:46.986Z,9.40
2023-02-02T20:45:15.622Z,9.40
2023-02-02T20:47:43.083Z,9.40
2023-02-02T20:50:10.989Z,9.40
2023-02-02T20:52:38.011Z,9.50
2023-02-02T20:55:05.081Z,9.50
2023-02-02T20:57:32.806Z,9.60
2023-02-02T20:59:59.703Z,9.30
2023-02-02T21:02:27.303Z,9.30
2023-02-02T21:04:54.326Z,9.40
2023-02-02T21:07:22.131Z,9.40
2023-02-02T21:09:49.884Z,9.50
2023-02-02T21:12:17.328Z,9.50
2023-02-02T21:14:46.968Z,9.40
2023-02-02T21:17:15.702Z,9.50
2023-02-02T21:19:43.400Z,9.40
2023-02-02T21:22:10.587Z,9.20
2023-02-02T21:24:37.581Z,9.00
2023-02-02T21:27:04.881Z,8.80
2023-02-02T21:29:32.669Z,8.90
2023-02-02T21:32:02.164Z,9.10
2023-02-02T21:34:29.725Z,9.10
2023-02-02T21:36:58.026Z,9.10
2023-02-02T21:39:35.535Z,9.30
2023-02-02T21:42:08.233Z,9.30
2023-02-02T21:44:39.600Z,9.30
2023-02-02T21:47:26.837Z,9.30
2023-02-02T21:49:57.824Z,9.30
2023-02-02T21:52:27.547Z,9.30
2023-02-02T21:54:54.431Z,9.20
2023-02-02T21:57:24.373Z,9.20
2023-02-02T21:59:55.008Z,9.20
2023-02-02T22:02:30.855Z,9.30
2023-02-02T22:04:59.160Z,9.30
2023-02-02T22:07:26.419Z,9.30
2023-02-02T22:09:54.232Z,9.40
2023-02-02T22:12:23.125Z,9.40
2023-02-02T22:14:51.919Z,9.40
2023-02-02T22:17:21.978Z,9.40
2023-02-02T22:19:58.680Z,9.40
2023-02-02T22:22:26.327Z,9.40
2023-02-02T22:25:01.814Z,9.40
2023-02-02T22:27:49.058Z,9.30
2023-02-02T22:30:22.872Z,9.10
2023-02-02T22:32:49.916Z,8.80
2023-02-02T22:35:16.853Z,8.70
2023-02-02T22:37:43.775Z,8.50
2023-02-02T22:40:10.990Z,8.30
2023-02-02T22:42:37.878Z,8.10
2023-02-02T22:45:04.948Z,7.90
2023-02-02T22:47:32.210Z,7.90
2023-02-02T22:49:59.144Z,7.90
2023-02-02T22:52:26.047Z,7.80
2023-02-02T22:54:52.986Z,7.80
2023-02-02T22:57:19.886Z,7.80
2023-02-02T22:59:46.791Z,7.90
2023-02-02T23:02:13.731Z,7.90
2023-02-02T23:04:40.742Z,7.90
2023-02-02T23:07:07.668Z,8.10
2023-02-02T23:09:34.781Z,8.00
2023-02-02T23:12:01.826Z,8.30
2023-02-02T23:14:28.729Z,8.20
2023-02-02T23:16:55.783Z,8.30
2023-02-02T23:19:22.690Z,8.50
2023-02-02T23:21:49.704Z,8.50
2023-02-02T23:24:16.640Z,8.60
2023-02-02T23:26:43.582Z,8.80
2023-02-02T23:29:10.506Z,8.80
2023-02-02T23:31:37.485Z,8.80
2023-02-02T23:34:04.468Z,8.80
2023-02-02T23:36:31.376Z,8.60
2023-02-02T23:38:58.304Z,8.60
2023-02-02T23:41:25.227Z,8.60
2023-02-02T23:43:52.311Z,8.70
2023-02-02T23:46:19.267Z,8.70
2023-02-02T23:48:46.242Z,8.50
2023-02-02T23:51:13.565Z,8.50
2023-02-02T23:53:41.428Z,8.50
2023-02-02T23:56:08.429Z,8.50
2023-02-02T23:58:35.359Z,8.50
